Time;durP1;ratioP1;P1;durP2;ratioP2;P2;SDS_P1;SDS_P2;PMS_P1;PMS_P2;Temp;Humidity;BMP_temperature;BMP_pressure;BME280_temperature;BME280_humidity;BME280_pressure;Samples;Min_cycle;Max_cycle;Signal;HPM_P1;HPM_P2
2023/06/25 00:01:58;;;;;;;0.00;0.00;;;23.00;99.90;;;;;;5073974;28;20060;-75
2023/06/25 00:04:23;;;;;;;0.10;0.10;;;23.20;99.90;;;;;;5074008;28;20474;-75
2023/06/25 00:06:49;;;;;;;0.40;0.40;;;23.10;99.90;;;;;;5073657;28;20036;-76
2023/06/25 00:09:16;;;;;;;0.08;0.08;;;22.90;99.90;;;;;;5073133;28;20062;-75
2023/06/25 00:11:42;;;;;;;0.73;0.73;;;22.40;99.90;;;;;;5073658;28;20099;-75
2023/06/25 00:14:08;;;;;;;6.72;1.38;;;22.50;99.90;;;;;;5073995;28;20120;-75
2023/06/25 00:16:34;;;;;;;0.00;0.00;;;22.10;99.90;;;;;;5073495;28;20021;-76
2023/06/25 00:19:00;;;;;;;0.05;0.05;;;22.00;99.90;;;;;;5072560;28;20111;-75
2023/06/25 00:21:27;;;;;;;0.55;0.55;;;22.10;99.90;;;;;;5073370;28;20072;-75
2023/06/25 00:23:53;;;;;;;0.13;0.13;;;22.00;99.90;;;;;;5073692;28;20040;-75
2023/06/25 00:26:19;;;;;;;0.00;0.00;;;22.00;99.90;;;;;;5073588;28;20082;-75
2023/06/25 00:28:45;;;;;;;0.10;0.10;;;22.20;99.90;;;;;;5073458;28;20017;-75
2023/06/25 00:31:12;;;;;;;0.47;0.47;;;22.40;99.90;;;;;;5072097;28;20021;-75
2023/06/25 00:33:41;;;;;;;0.00;0.00;;;22.40;99.90;;;;;;5072115;28;20020;-75
2023/06/25 00:36:07;;;;;;;0.00;0.00;;;22.30;99.90;;;;;;5073226;28;20021;-75
2023/06/25 00:38:34;;;;;;;0.00;0.00;;;22.30;99.90;;;;;;5073065;28;20174;-75
2023/06/25 00:41:01;;;;;;;0.10;0.10;;;22.40;99.90;;;;;;5051390;28;20021;-76
2023/06/25 00:43:27;;;;;;;0.00;0.00;;;22.40;99.90;;;;;;5053043;28;20037;-76
2023/06/25 00:45:52;;;;;;;0.00;0.00;;;22.20;99.90;;;;;;5051816;28;20028;-76
2023/06/25 00:48:21;;;;;;;0.10;0.10;;;22.10;99.90;;;;;;5051923;28;20202;-76
2023/06/25 00:50:48;;;;;;;0.80;0.80;;;22.10;99.90;;;;;;5053110;28;20064;-76
2023/06/25 00:53:14;;;;;;;0.20;0.20;;;22.10;99.90;;;;;;5051850;28;20036;-76
2023/06/25 00:55:40;;;;;;;0.30;0.30;;;21.70;99.90;;;;;;5053240;28;20037;-76
2023/06/25 00:58:06;;;;;;;0.00;0.00;;;21.50;99.90;;;;;;5051229;28;20040;-75
2023/06/25 01:00:33;;;;;;;0.10;0.10;;;21.70;99.90;;;;;;5052815;28;20075;-74
2023/06/25 01:03:12;;;;;;;0.00;0.00;;;21.90;99.90;;;;;;5053098;28;20017;-75
2023/06/25 01:06:17;;;;;;;0.00;0.00;;;21.80;99.90;;;;;;5051489;28;20036;-74
2023/06/25 01:08:49;;;;;;;2.65;0.45;;;21.60;99.90;;;;;;4975021;28;20061;-74
2023/06/25 01:11:16;;;;;;;1.83;0.82;;;21.80;99.90;;;;;;4991313;28;20042;-75
2023/06/25 01:13:42;;;;;;;0.10;0.10;;;21.80;99.90;;;;;;5015985;28;20470;-75
2023/06/25 01:16:07;;;;;;;0.28;0.28;;;21.70;99.90;;;;;;5051657;28;20091;-74
2023/06/25 01:18:33;;;;;;;0.10;0.10;;;21.60;99.90;;;;;;5050952;28;20067;-75
2023/06/25 01:21:00;;;;;;;0.00;0.00;;;21.50;99.90;;;;;;5051508;28;20504;-74
2023/06/25 01:23:28;;;;;;;0.43;0.43;;;22.00;99.90;;;;;;5052759;28;20036;-74
2023/06/25 01:25:53;;;;;;;0.00;0.00;;;22.00;99.90;;;;;;5052742;28;20104;-74
2023/06/25 01:28:20;;;;;;;0.00;0.00;;;22.00;99.90;;;;;;5052633;28;20060;-74
2023/06/25 01:30:47;;;;;;;0.03;0.03;;;21.80;99.90;;;;;;5051299;28;20025;-74
2023/06/25 01:33:15;;;;;;;1.00;0.80;;;21.70;99.90;;;;;;5052321;28;20112;-74
2023/06/25 01:35:41;;;;;;;0.08;0.08;;;21.60;99.90;;;;;;5051264;28;20039;-74
2023/06/25 01:38:07;;;;;;;1.27;1.08;;;21.60;99.90;;;;;;5051173;28;20032;-73
2023/06/25 01:40:32;;;;;;;0.00;0.00;;;21.60;99.90;;;;;;5051355;28;20074;-74
2023/06/25 01:42:58;;;;;;;0.10;0.10;;;21.40;99.90;;;;;;5034292;28;20068;-74
2023/06/25 01:45:24;;;;;;;0.00;0.00;;;21.40;99.90;;;;;;5052660;28;20029;-74
2023/06/25 01:47:50;;;;;;;0.08;0.08;;;21.30;99.90;;;;;;5051997;28;20021;-74
2023/06/25 01:50:16;;;;;;;0.22;0.22;;;21.50;99.90;;;;;;5051038;28;20116;-74
2023/06/25 01:52:41;;;;;;;0.15;0.15;;;21.30;99.90;;;;;;5051155;28;20474;-74
2023/06/25 01:55:07;;;;;;;0.00;0.00;;;21.20;99.90;;;;;;5051118;28;20108;-74
2023/06/25 01:57:33;;;;;;;0.03;0.03;;;21.10;99.90;;;;;;5051101;28;20032;-74
2023/06/25 01:59:59;;;;;;;0.00;0.00;;;21.20;99.90;;;;;;5050763;28;20115;-74
2023/06/25 02:02:25;;;;;;;0.10;0.10;;;21.30;99.90;;;;;;5052028;28;20036;-75
2023/06/25 02:04:50;;;;;;;0.00;0.00;;;21.50;99.90;;;;;;5051025;28;20029;-74
2023/06/25 02:07:16;;;;;;;0.00;0.00;;;21.60;99.90;;;;;;5049311;28;20494;-74
2023/06/25 02:09:42;;;;;;;0.00;0.00;;;21.60;99.90;;;;;;5052165;28;20535;-75
2023/06/25 02:12:08;;;;;;;0.00;0.00;;;21.50;99.90;;;;;;5051091;28;20025;-74
2023/06/25 02:14:35;;;;;;;4.30;0.98;;;21.70;99.90;;;;;;5052005;28;20038;-75
2023/06/25 02:17:00;;;;;;;0.65;0.65;;;21.70;99.90;;;;;;5050563;28;20393;-74
2023/06/25 02:19:27;;;;;;;0.45;0.45;;;21.60;99.90;;;;;;5050744;28;20112;-75
2023/06/25 02:21:53;;;;;;;0.00;0.00;;;21.40;99.90;;;;;;5051098;28;20091;-74
2023/06/25 02:24:19;;;;;;;0.93;0.85;;;21.40;99.90;;;;;;5051997;28;20021;-74
2023/06/25 02:26:45;;;;;;;0.00;0.00;;;21.40;99.90;;;;;;5051174;28;20381;-75
2023/06/25 02:29:10;;;;;;;0.32;0.32;;;21.40;99.90;;;;;;5051827;28;20029;-74
2023/06/25 02:31:36;;;;;;;0.00;0.00;;;21.40;99.90;;;;;;5052275;28;20029;-75
2023/06/25 02:34:02;;;;;;;0.00;0.00;;;21.20;99.90;;;;;;5054370;28;20059;-74
2023/06/25 02:36:27;;;;;;;0.10;0.10;;;21.30;99.90;;;;;;5054370;28;20386;-74
2023/06/25 02:38:55;;;;;;;0.13;0.13;;;21.40;99.90;;;;;;5054022;28;20397;-74
2023/06/25 02:41:20;;;;;;;2.78;0.70;;;21.10;99.90;;;;;;5055588;28;20039;-74
2023/06/25 02:43:46;;;;;;;0.10;0.10;;;20.60;99.90;;;;;;5055398;28;20036;-74
2023/06/25 02:46:12;;;;;;;0.17;0.17;;;20.30;99.90;;;;;;5054004;28;20044;-75
2023/06/25 02:48:42;;;;;;;0.03;0.03;;;20.10;99.90;;;;;;5055031;28;20562;-74
2023/06/25 02:51:12;;;;;;;0.03;0.03;;;20.00;99.90;;;;;;5053849;28;20029;-74
2023/06/25 02:53:38;;;;;;;0.10;0.10;;;20.00;99.90;;;;;;5055227;28;20025;-74
2023/06/25 02:56:04;;;;;;;0.00;0.00;;;20.10;99.90;;;;;;5055235;28;20021;-74
2023/06/25 02:58:30;;;;;;;0.00;0.00;;;20.30;99.90;;;;;;5055118;28;20029;-74
2023/06/25 03:00:55;;;;;;;0.00;0.00;;;20.50;99.90;;;;;;5053660;28;20031;-74
2023/06/25 03:03:21;;;;;;;0.00;0.00;;;20.70;99.90;;;;;;5053897;28;20063;-74
2023/06/25 03:05:47;;;;;;;0.00;0.00;;;20.80;99.90;;;;;;5053659;28;20053;-74
2023/06/25 03:08:13;;;;;;;0.00;0.00;;;20.60;99.90;;;;;;5053772;28;20036;-74
2023/06/25 03:10:39;;;;;;;0.00;0.00;;;20.70;99.90;;;;;;5037126;28;20083;-74
2023/06/25 03:13:06;;;;;;;0.03;0.03;;;20.50;99.90;;;;;;5053734;28;20040;-75
2023/06/25 03:15:32;;;;;;;0.13;0.13;;;20.50;99.90;;;;;;5053434;28;20025;-75
2023/06/25 03:17:58;;;;;;;0.08;0.08;;;20.60;99.90;;;;;;5053560;28;20401;-75
2023/06/25 03:20:24;;;;;;;0.25;0.25;;;20.70;99.90;;;;;;5053342;28;20013;-75
2023/06/25 03:22:50;;;;;;;0.30;0.30;;;20.60;99.90;;;;;;5054918;28;20029;-74
2023/06/25 03:25:16;;;;;;;0.00;0.00;;;20.60;99.90;;;;;;5054634;28;20044;-74
2023/06/25 03:27:47;;;;;;;0.00;0.00;;;20.50;99.90;;;;;;5053331;28;20445;-74
2023/06/25 03:30:13;;;;;;;0.15;0.15;;;20.40;99.90;;;;;;5051922;28;20025;-74
2023/06/25 03:32:39;;;;;;;0.00;0.00;;;20.20;99.90;;;;;;5053100;28;20112;-75
2023/06/25 03:35:06;;;;;;;0.73;0.73;;;20.20;99.90;;;;;;5054397;28;20067;-75
2023/06/25 03:37:33;;;;;;;0.00;0.00;;;20.20;99.90;;;;;;5053063;28;20057;-74
2023/06/25 03:39:59;;;;;;;0.00;0.00;;;20.20;99.90;;;;;;5054405;28;20059;-74
2023/06/25 03:42:25;;;;;;;0.00;0.00;;;20.30;99.90;;;;;;5035439;28;20079;-75
2023/06/25 03:44:55;;;;;;;0.17;0.17;;;20.40;99.90;;;;;;5052482;28;20021;-74
2023/06/25 03:47:25;;;;;;;0.00;0.00;;;20.30;99.90;;;;;;5052968;28;20040;-74
2023/06/25 03:49:51;;;;;;;0.03;0.03;;;20.40;99.90;;;;;;5052776;28;20025;-76
2023/06/25 03:52:16;;;;;;;0.00;0.00;;;20.50;99.90;;;;;;5053244;28;20532;-75
2023/06/25 03:54:42;;;;;;;0.00;0.00;;;20.40;99.90;;;;;;5052701;28;20028;-74
2023/06/25 03:57:09;;;;;;;0.00;0.00;;;20.30;99.90;;;;;;5052843;28;20044;-74
2023/06/25 03:59:35;;;;;;;0.00;0.00;;;20.50;99.90;;;;;;5053678;28;20393;-75
2023/06/25 04:02:00;;;;;;;1.15;1.08;;;20.50;99.90;;;;;;5054096;28;20043;-74
2023/06/25 04:04:26;;;;;;;0.00;0.00;;;20.70;99.90;;;;;;5052644;28;20116;-75
2023/06/25 04:06:53;;;;;;;7.57;1.38;;;20.70;99.90;;;;;;5052369;28;20025;-73
2023/06/25 04:09:19;;;;;;;1.27;1.27;;;20.20;99.90;;;;;;5052186;28;20033;-75
2023/06/25 04:11:45;;;;;;;0.10;0.10;;;20.10;99.90;;;;;;5052531;28;20523;-73
2023/06/25 04:14:11;;;;;;;0.00;0.00;;;20.20;99.90;;;;;;5053570;28;20029;-75
2023/06/25 04:16:37;;;;;;;0.00;0.00;;;20.50;99.90;;;;;;5052081;28;20025;-75
2023/06/25 04:19:03;;;;;;;0.13;0.13;;;20.70;99.90;;;;;;5052373;28;20441;-75
2023/06/25 04:21:30;;;;;;;0.00;0.00;;;20.80;99.90;;;;;;5052472;28;20109;-75
2023/06/25 04:23:56;;;;;;;2.55;1.42;;;20.80;99.90;;;;;;5053656;28;20120;-75
2023/06/25 04:26:22;;;;;;;4.65;2.78;;;20.70;99.90;;;;;;5052197;28;20029;-74
2023/06/25 04:28:48;;;;;;;0.00;0.00;;;20.80;99.90;;;;;;5051945;28;20021;-74
2023/06/25 04:31:14;;;;;;;0.00;0.00;;;20.90;99.90;;;;;;5052104;28;20111;-75
2023/06/25 04:33:41;;;;;;;0.00;0.00;;;21.00;99.90;;;;;;5053690;28;20075;-74
2023/06/25 04:36:14;;;;;;;0.00;0.00;;;21.00;99.90;;;;;;5052357;28;20029;-74
2023/06/25 04:38:41;;;;;;;0.00;0.00;;;21.10;99.90;;;;;;5051971;28;20448;-74
2023/06/25 04:41:07;;;;;;;0.00;0.00;;;21.10;99.90;;;;;;5051879;28;20028;-74
2023/06/25 04:43:33;;;;;;;0.05;0.05;;;21.10;99.90;;;;;;5051763;28;20102;-75
2023/06/25 04:46:00;;;;;;;0.43;0.43;;;21.20;99.90;;;;;;5051789;28;20029;-74
2023/06/25 04:48:26;;;;;;;0.00;0.00;;;21.30;99.90;;;;;;5051911;28;20021;-74
2023/06/25 04:50:52;;;;;;;0.20;0.20;;;21.40;99.90;;;;;;5051990;28;20389;-74
2023/06/25 04:53:18;;;;;;;0.75;0.75;;;21.30;99.90;;;;;;5052959;28;20466;-75
2023/06/25 04:55:44;;;;;;;0.15;0.15;;;21.30;99.90;;;;;;5051800;28;20029;-74
2023/06/25 04:58:10;;;;;;;0.00;0.00;;;21.30;99.90;;;;;;5051420;28;20205;-74
2023/06/25 05:00:35;;;;;;;0.00;0.00;;;21.30;99.90;;;;;;5053027;28;20033;-75
2023/06/25 05:03:01;;;;;;;0.00;0.00;;;21.40;99.90;;;;;;5051656;28;20027;-74
2023/06/25 05:05:27;;;;;;;0.00;0.00;;;21.60;99.90;;;;;;5053135;28;20029;-75
2023/06/25 05:07:53;;;;;;;0.00;0.00;;;21.70;99.90;;;;;;5052946;28;20032;-75
2023/06/25 05:10:20;;;;;;;0.00;0.00;;;21.80;99.90;;;;;;5052646;28;20053;-74
2023/06/25 05:12:45;;;;;;;0.00;0.00;;;21.90;99.90;;;;;;5051653;28;20397;-74
2023/06/25 05:15:11;;;;;;;1.88;1.75;;;22.00;99.90;;;;;;5052902;28;20025;-74
2023/06/25 05:17:37;;;;;;;0.17;0.17;;;22.20;99.90;;;;;;5052764;28;20489;-74
2023/06/25 05:20:04;;;;;;;0.00;0.00;;;22.30;99.90;;;;;;5052525;28;20025;-74
2023/06/25 05:22:30;;;;;;;0.35;0.35;;;22.10;99.90;;;;;;5051176;28;20083;-74
2023/06/25 05:24:56;;;;;;;0.10;0.10;;;22.00;99.90;;;;;;5052395;28;20025;-74
2023/06/25 05:27:21;;;;;;;0.00;0.00;;;22.20;99.90;;;;;;5052589;28;20052;-74
2023/06/25 05:29:47;;;;;;;0.00;0.00;;;22.30;99.90;;;;;;5052615;28;20025;-74
2023/06/25 05:32:13;;;;;;;0.00;0.00;;;22.40;99.90;;;;;;5052485;28;20055;-74
2023/06/25 05:34:39;;;;;;;0.08;0.08;;;22.70;99.90;;;;;;5052586;28;20022;-74
2023/06/25 05:37:05;;;;;;;1.40;1.05;;;22.70;99.90;;;;;;5052220;28;20394;-73
2023/06/25 05:39:31;;;;;;;0.10;0.10;;;22.60;99.90;;;;;;5052352;28;20018;-73
2023/06/25 05:42:00;;;;;;;0.65;0.45;;;22.50;99.90;;;;;;5052276;28;20535;-73
2023/06/25 05:44:26;;;;;;;0.00;0.00;;;22.50;99.90;;;;;;5051235;28;20033;-74
2023/06/25 05:46:52;;;;;;;0.00;0.00;;;22.60;99.90;;;;;;5046810;28;20029;-73
2023/06/25 05:49:18;;;;;;;0.52;0.52;;;22.70;99.90;;;;;;5048115;28;20057;-74
2023/06/25 05:51:43;;;;;;;0.00;0.00;;;22.80;99.90;;;;;;5051233;28;20381;-74
2023/06/25 05:54:09;;;;;;;0.15;0.15;;;22.80;99.90;;;;;;5050966;28;20060;-73
2023/06/25 05:56:35;;;;;;;0.00;0.00;;;22.80;99.90;;;;;;5049952;28;20021;-74
2023/06/25 05:59:01;;;;;;;0.03;0.03;;;23.10;99.90;;;;;;5049986;28;20029;-74
2023/06/25 06:01:26;;;;;;;0.00;0.00;;;23.40;99.90;;;;;;5051426;28;20461;-73
2023/06/25 06:03:53;;;;;;;0.00;0.00;;;23.60;99.90;;;;;;5051375;28;20044;-73
2023/06/25 06:06:18;;;;;;;0.00;0.00;;;23.50;99.90;;;;;;5052341;28;20025;-74
2023/06/25 06:08:44;;;;;;;0.45;0.45;;;23.60;99.90;;;;;;5053555;28;20028;-73
2023/06/25 06:11:10;;;;;;;0.40;0.40;;;23.40;99.90;;;;;;5055082;28;20035;-73
2023/06/25 06:13:36;;;;;;;0.52;0.52;;;23.30;99.90;;;;;;5054962;28;20036;-74
2023/06/25 06:16:03;;;;;;;0.00;0.00;;;23.30;99.90;;;;;;5054808;28;20028;-74
2023/06/25 06:18:28;;;;;;;1.13;0.73;;;23.50;99.90;;;;;;5053387;28;20032;-73
2023/06/25 06:20:54;;;;;;;0.10;0.10;;;23.40;99.90;;;;;;5055191;28;20017;-73
2023/06/25 06:23:20;;;;;;;3.30;0.98;;;23.30;99.90;;;;;;5053862;28;20028;-73
2023/06/25 06:25:46;;;;;;;0.00;0.00;;;23.40;99.90;;;;;;5053562;28;20082;-74
2023/06/25 06:28:11;;;;;;;5.10;1.40;;;23.60;99.90;;;;;;5054860;28;20090;-73
2023/06/25 06:30:37;;;;;;;0.00;0.00;;;23.70;99.90;;;;;;5054595;28;20035;-73
2023/06/25 06:33:03;;;;;;;11.70;2.75;;;23.70;99.90;;;;;;5054588;28;20152;-73
2023/06/25 06:35:29;;;;;;;1.95;1.40;;;23.70;99.90;;;;;;5054297;28;20029;-74
2023/06/25 06:37:54;;;;;;;0.22;0.22;;;23.60;99.90;;;;;;5054177;28;20104;-74
2023/06/25 06:40:20;;;;;;;1.65;1.10;;;23.70;99.90;;;;;;5053102;28;20021;-74
2023/06/25 06:42:46;;;;;;;0.75;0.47;;;23.70;99.90;;;;;;5054525;28;20036;-74
2023/06/25 06:45:12;;;;;;;0.10;0.10;;;23.90;99.90;;;;;;5054526;28;20025;-74
2023/06/25 06:47:37;;;;;;;2.83;2.17;;;24.20;99.90;;;;;;5054120;28;20035;-73
2023/06/25 06:50:04;;;;;;;2.38;0.98;;;24.20;99.90;;;;;;5054474;28;20204;-74
2023/06/25 06:52:29;;;;;;;0.45;0.43;;;24.20;99.90;;;;;;5052676;28;20047;-73
2023/06/25 06:54:55;;;;;;;0.00;0.00;;;24.30;99.90;;;;;;5054148;28;20025;-74
2023/06/25 06:57:21;;;;;;;7.32;2.60;;;24.50;99.90;;;;;;5054095;28;20037;-74
2023/06/25 06:59:47;;;;;;;0.45;0.40;;;24.60;99.90;;;;;;5053908;28;20094;-73
2023/06/25 07:02:13;;;;;;;0.00;0.00;;;24.60;99.90;;;;;;5054567;28;20033;-74
2023/06/25 07:04:39;;;;;;;0.10;0.10;;;24.60;99.90;;;;;;5053574;28;20057;-74
2023/06/25 07:07:05;;;;;;;0.00;0.00;;;24.90;99.90;;;;;;5053628;28;20091;-74
2023/06/25 07:09:31;;;;;;;0.73;0.73;;;25.00;99.90;;;;;;5053829;28;20462;-74
2023/06/25 07:11:57;;;;;;;1.65;1.58;;;25.10;99.90;;;;;;5053911;28;20048;-73
2023/06/25 07:14:23;;;;;;;5.50;1.88;;;25.10;99.50;;;;;;5053864;28;20021;-74
2023/06/25 07:16:49;;;;;;;2.20;1.13;;;25.00;98.70;;;;;;5052360;28;20031;-74
2023/06/25 07:19:15;;;;;;;1.73;0.77;;;25.00;99.60;;;;;;5053786;28;20060;-73
2023/06/25 07:21:40;;;;;;;0.55;0.55;;;25.00;98.90;;;;;;5053587;28;20025;-73
2023/06/25 07:24:06;;;;;;;0.30;0.20;;;24.80;98.00;;;;;;5053926;28;20094;-74
2023/06/25 07:26:32;;;;;;;0.08;0.08;;;24.80;98.30;;;;;;5052765;28;20017;-73
2023/06/25 07:28:58;;;;;;;2.92;1.45;;;25.00;98.70;;;;;;5052408;28;20477;-74
2023/06/25 07:31:23;;;;;;;0.00;0.00;;;25.20;98.70;;;;;;5053451;28;20082;-74
2023/06/25 07:33:49;;;;;;;0.57;0.35;;;25.20;98.60;;;;;;5053796;28;20069;-74
2023/06/25 07:36:16;;;;;;;0.85;0.43;;;25.20;98.70;;;;;;5053096;28;20036;-74
2023/06/25 07:38:42;;;;;;;5.05;1.95;;;25.30;98.90;;;;;;5053312;28;20056;-74
2023/06/25 07:41:08;;;;;;;0.05;0.05;;;25.40;98.50;;;;;;5052730;28;20486;-73
2023/06/25 07:43:34;;;;;;;0.25;0.25;;;25.60;98.90;;;;;;5053645;28;20136;-74
2023/06/25 07:45:59;;;;;;;3.03;0.88;;;25.50;98.50;;;;;;5052899;28;20030;-74
2023/06/25 07:48:25;;;;;;;0.00;0.00;;;25.70;99.50;;;;;;5051831;28;20397;-74
2023/06/25 07:50:52;;;;;;;1.90;1.35;;;25.80;99.60;;;;;;5053201;28;20021;-74
2023/06/25 07:53:18;;;;;;;3.33;2.42;;;25.60;99.00;;;;;;5053213;28;20025;-74
2023/06/25 07:55:45;;;;;;;1.55;0.98;;;25.40;98.80;;;;;;5052139;28;20235;-74
2023/06/25 07:58:11;;;;;;;0.25;0.25;;;25.60;99.80;;;;;;5052949;28;20036;-74
2023/06/25 08:00:37;;;;;;;0.03;0.03;;;25.80;99.50;;;;;;5052599;28;20083;-74
2023/06/25 08:03:03;;;;;;;0.10;0.10;;;25.70;99.00;;;;;;5051388;28;20037;-74
2023/06/25 08:05:29;;;;;;;0.00;0.00;;;26.10;98.80;;;;;;5052461;28;20020;-74
2023/06/25 08:07:56;;;;;;;0.65;0.50;;;26.40;99.60;;;;;;5052906;28;20508;-73
2023/06/25 08:10:23;;;;;;;0.55;0.45;;;26.50;98.80;;;;;;5042188;28;20107;-75
2023/06/25 08:12:50;;;;;;;0.28;0.28;;;26.30;98.80;;;;;;5053040;28;20021;-74
2023/06/25 08:15:16;;;;;;;0.00;0.00;;;26.40;98.60;;;;;;5051026;28;20111;-74
2023/06/25 08:17:42;;;;;;;1.00;0.60;;;26.30;98.90;;;;;;5052522;28;20116;-75
2023/06/25 08:20:08;;;;;;;0.00;0.00;;;26.50;99.00;;;;;;5049251;28;20025;-73
2023/06/25 08:22:34;;;;;;;1.55;1.15;;;26.50;99.30;;;;;;5038845;28;20037;-73
2023/06/25 08:24:59;;;;;;;0.55;0.15;;;26.30;98.90;;;;;;5047295;28;20036;-73
2023/06/25 08:27:25;;;;;;;0.70;0.45;;;26.50;99.20;;;;;;5052247;28;20101;-72
2023/06/25 08:29:51;;;;;;;0.35;0.35;;;26.50;99.70;;;;;;5052117;28;20048;-74
2023/06/25 08:32:17;;;;;;;0.20;0.20;;;26.60;99.20;;;;;;5051734;28;20370;-74
2023/06/25 08:34:42;;;;;;;1.38;0.95;;;26.60;99.90;;;;;;5051935;28;20033;-74
2023/06/25 08:37:08;;;;;;;1.70;1.55;;;26.80;99.90;;;;;;5052247;28;20059;-75
2023/06/25 08:39:34;;;;;;;1.10;1.00;;;27.00;99.60;;;;;;5051167;28;20052;-75
2023/06/25 08:42:00;;;;;;;0.20;0.20;;;26.60;99.30;;;;;;5050690;28;20071;-74
2023/06/25 08:44:25;;;;;;;0.35;0.35;;;26.70;99.90;;;;;;5037402;28;20060;-75
2023/06/25 08:46:54;;;;;;;3.20;2.20;;;26.90;98.90;;;;;;5050716;28;20458;-74
2023/06/25 08:49:23;;;;;;;2.22;1.58;;;27.10;98.70;;;;;;5051672;28;20097;-74
2023/06/25 08:51:55;;;;;;;0.10;0.10;;;26.80;98.30;;;;;;5052248;28;20017;-74
2023/06/25 08:54:21;;;;;;;0.63;0.40;;;27.00;98.50;;;;;;5050477;28;20048;-74
2023/06/25 08:56:47;;;;;;;1.30;0.57;;;27.00;98.60;;;;;;5050855;28;20072;-74
2023/06/25 08:59:13;;;;;;;0.55;0.28;;;26.90;99.30;;;;;;5051736;28;20468;-75
2023/06/25 09:01:39;;;;;;;2.13;1.08;;;27.10;99.90;;;;;;5051613;28;20029;-74
2023/06/25 09:04:04;;;;;;;0.13;0.13;;;27.40;99.30;;;;;;5050923;28;20036;-74
2023/06/25 09:06:39;;;;;;;0.68;0.68;;;27.70;98.80;;;;;;5032050;28;20458;-74
2023/06/25 09:09:05;;;;;;;2.00;1.00;;;27.80;98.40;;;;;;5051151;28;20064;-74
2023/06/25 09:11:34;;;;;;;14.15;1.75;;;27.70;98.00;;;;;;5051083;28;20032;-74
2023/06/25 09:14:01;;;;;;;1.50;1.05;;;27.70;98.80;;;;;;5050920;28;20477;-75
2023/06/25 09:16:27;;;;;;;3.17;2.17;;;27.80;98.50;;;;;;5051069;28;20013;-74
2023/06/25 09:18:53;;;;;;;1.65;0.63;;;27.70;98.40;;;;;;5051356;28;20508;-74
2023/06/25 09:21:19;;;;;;;0.22;0.13;;;27.70;97.90;;;;;;5049849;28;20111;-74
2023/06/25 09:23:51;;;;;;;1.92;1.35;;;27.90;98.00;;;;;;5051326;28;20113;-74
2023/06/25 09:26:17;;;;;;;1.40;1.30;;;28.00;97.90;;;;;;5035439;28;20033;-74
2023/06/25 09:28:59;;;;;;;0.47;0.45;;;28.20;98.30;;;;;;5048795;28;20108;-74
2023/06/25 09:31:25;;;;;;;1.88;1.02;;;28.20;98.30;;;;;;5049527;28;20025;-74
2023/06/25 09:33:51;;;;;;;0.10;0.10;;;28.10;97.50;;;;;;5051578;28;20036;-75
2023/06/25 09:36:17;;;;;;;0.25;0.22;;;28.60;97.70;;;;;;5051346;28;20021;-75
2023/06/25 09:38:45;;;;;;;0.75;0.40;;;28.90;97.10;;;;;;5051357;28;20033;-75
2023/06/25 09:41:15;;;;;;;4.03;1.23;;;28.90;96.20;;;;;;5051465;28;20020;-75
2023/06/25 09:43:42;;;;;;;9.85;1.67;;;28.70;96.80;;;;;;5048990;28;20052;-75
2023/06/25 09:46:09;;;;;;;1.02;0.22;;;28.10;96.80;;;;;;5053964;28;20091;-74
2023/06/25 09:48:37;;;;;;;1.13;0.73;;;28.20;98.00;;;;;;5055043;28;20021;-74
2023/06/25 09:51:06;;;;;;;0.95;0.55;;;28.40;96.80;;;;;;5055337;28;20384;-74
2023/06/25 09:53:38;;;;;;;0.57;0.52;;;28.40;96.10;;;;;;5053905;28;20021;-76
2023/06/25 09:56:08;;;;;;;0.55;0.55;;;28.50;96.70;;;;;;5053807;28;20033;-75
2023/06/25 09:58:34;;;;;;;1.55;1.00;;;28.70;95.50;;;;;;5054868;28;20025;-75
2023/06/25 10:01:00;;;;;;;6.93;1.23;;;28.80;95.90;;;;;;5054802;28;20175;-74
2023/06/25 10:03:27;;;;;;;1.83;1.10;;;28.80;95.50;;;;;;5052468;28;20044;-75
2023/06/25 10:05:53;;;;;;;0.08;0.08;;;28.70;95.00;;;;;;5055185;28;20017;-74
2023/06/25 10:08:19;;;;;;;2.97;1.33;;;28.80;94.60;;;;;;5054672;28;20103;-74
2023/06/25 10:10:59;;;;;;;1.10;0.65;;;29.10;94.40;;;;;;5055147;28;20122;-75
2023/06/25 10:13:26;;;;;;;5.28;1.08;;;29.30;94.60;;;;;;5054525;28;20029;-77
2023/06/25 10:16:03;;;;;;;1.55;1.33;;;29.50;92.90;;;;;;5054721;28;20382;-75
2023/06/25 10:18:29;;;;;;;2.47;1.00;;;29.50;92.70;;;;;;5054271;28;20048;-76
2023/06/25 10:20:57;;;;;;;0.57;0.45;;;29.40;92.70;;;;;;5054799;28;20031;-76
2023/06/25 10:23:23;;;;;;;0.93;0.85;;;29.60;92.60;;;;;;5054370;28;20140;-76
2023/06/25 10:25:57;;;;;;;2.40;1.65;;;29.80;92.70;;;;;;5052819;28;20051;-76
2023/06/25 10:28:31;;;;;;;1.00;0.98;;;29.50;92.60;;;;;;5054567;28;20040;-76
2023/06/25 10:30:59;;;;;;;0.35;0.35;;;29.60;93.60;;;;;;5053315;28;20029;-76
2023/06/25 10:33:27;;;;;;;1.38;0.70;;;30.00;93.50;;;;;;5054625;28;20044;-76
2023/06/25 10:35:58;;;;;;;0.08;0.08;;;30.20;92.60;;;;;;5053073;28;20021;-76
2023/06/25 10:38:24;;;;;;;1.35;0.75;;;30.50;92.40;;;;;;5054385;28;20052;-76
2023/06/25 10:40:50;;;;;;;0.25;0.25;;;30.50;91.10;;;;;;5054096;28;20106;-76
2023/06/25 10:43:20;;;;;;;27.92;1.45;;;30.80;91.90;;;;;;5036552;28;20107;-76
2023/06/25 10:45:56;;;;;;;1.63;1.50;;;30.70;90.70;;;;;;5052803;28;20029;-75
2023/06/25 10:48:23;;;;;;;0.65;0.65;;;30.00;91.00;;;;;;5053116;28;20104;-76
2023/06/25 10:50:51;;;;;;;1.10;0.40;;;30.60;91.30;;;;;;5054158;28;20529;-76
2023/06/25 10:53:19;;;;;;;0.20;0.20;;;30.20;91.50;;;;;;5053731;28;20064;-77
2023/06/25 10:55:49;;;;;;;4.13;0.68;;;30.50;90.90;;;;;;5054200;28;20096;-77
2023/06/25 10:58:17;;;;;;;0.00;0.00;;;30.70;89.50;;;;;;5052490;28;20029;-76
2023/06/25 11:00:44;;;;;;;1.50;1.08;;;30.90;90.00;;;;;;5053670;28;20029;-76
2023/06/25 11:03:10;;;;;;;6.20;0.95;;;30.70;89.70;;;;;;5054121;28;20094;-76
2023/06/25 11:05:40;;;;;;;1.10;1.00;;;30.20;89.00;;;;;;5054076;28;20025;-76
2023/06/25 11:08:10;;;;;;;1.35;1.05;;;30.60;89.80;;;;;;5054172;28;20186;-76
2023/06/25 11:10:37;;;;;;;7.63;1.52;;;30.60;89.10;;;;;;5053399;28;20013;-77
2023/06/25 11:13:03;;;;;;;0.10;0.10;;;30.90;87.70;;;;;;5053618;28;20111;-74
2023/06/25 11:15:33;;;;;;;0.00;0.00;;;30.90;86.70;;;;;;5053507;28;20029;-80
2023/06/25 11:18:00;;;;;;;0.95;0.82;;;31.10;89.60;;;;;;5052859;28;20134;-77
2023/06/25 11:20:27;;;;;;;0.93;0.93;;;30.80;87.00;;;;;;5052831;28;20562;-77
2023/06/25 11:22:55;;;;;;;1.08;0.98;;;30.60;88.80;;;;;;5042784;28;20281;-77
2023/06/25 11:25:21;;;;;;;20.08;9.30;;;31.00;87.40;;;;;;5051311;28;20040;-78
2023/06/25 11:28:04;;;;;;;0.75;0.75;;;30.60;87.90;;;;;;5053681;28;20096;-77
2023/06/25 11:30:30;;;;;;;2.10;1.58;;;30.50;87.10;;;;;;5053514;28;20028;-77
2023/06/25 11:33:16;;;;;;;0.55;0.35;;;30.50;87.00;;;;;;5053255;28;20661;-76
2023/06/25 11:35:49;;;;;;;2.35;1.50;;;30.60;87.20;;;;;;5052406;28;20384;-76
2023/06/25 11:38:26;;;;;;;0.30;0.30;;;30.90;87.70;;;;;;5053626;28;20116;-76
2023/06/25 11:40:53;;;;;;;0.68;0.38;;;31.10;87.20;;;;;;5064391;28;20039;-76
2023/06/25 11:43:22;;;;;;;2.45;1.67;;;31.40;87.90;;;;;;5066679;28;20092;-76
2023/06/25 11:45:48;;;;;;;0.28;0.28;;;31.60;85.60;;;;;;5070685;28;20085;-76
2023/06/25 11:48:16;;;;;;;0.22;0.22;;;30.60;86.40;;;;;;5063960;28;20033;-76
2023/06/25 11:50:43;;;;;;;0.68;0.52;;;31.10;87.00;;;;;;5053608;28;20397;-76
2023/06/25 11:53:09;;;;;;;0.28;0.28;;;31.00;86.40;;;;;;5053124;28;20037;-76
2023/06/25 11:55:34;;;;;;;2.20;1.15;;;31.40;85.60;;;;;;5053107;28;20021;-76
2023/06/25 11:58:00;;;;;;;0.43;0.30;;;31.50;84.90;;;;;;5052896;28;20048;-76
2023/06/25 12:00:27;;;;;;;1.83;0.60;;;31.90;85.50;;;;;;5052543;28;20031;-75
2023/06/25 12:02:53;;;;;;;1.98;0.77;;;32.30;84.60;;;;;;5053481;28;20470;-75
2023/06/25 12:05:18;;;;;;;1.08;0.85;;;32.00;83.10;;;;;;5053210;28;20470;-74
2023/06/25 12:07:45;;;;;;;5.18;1.05;;;32.00;83.30;;;;;;5053732;28;20028;-75
2023/06/25 12:10:11;;;;;;;1.45;0.38;;;31.90;83.40;;;;;;5053701;28;20040;-74
2023/06/25 12:12:37;;;;;;;3.22;0.77;;;32.00;84.90;;;;;;5053480;28;20064;-76
2023/06/25 12:15:03;;;;;;;3.25;1.80;;;32.20;82.70;;;;;;5053726;28;20367;-75
2023/06/25 12:17:29;;;;;;;1.38;0.43;;;31.90;82.00;;;;;;5053269;28;20655;-74
2023/06/25 12:19:54;;;;;;;1.40;1.02;;;31.80;82.90;;;;;;5052513;28;20489;-73
2023/06/25 12:22:20;;;;;;;0.50;0.50;;;31.10;82.90;;;;;;5051694;28;20041;-73
2023/06/25 12:24:46;;;;;;;0.35;0.35;;;31.40;80.90;;;;;;5053587;28;20025;-73
2023/06/25 12:27:12;;;;;;;0.70;0.70;;;31.60;82.70;;;;;;5052746;28;20029;-73
2023/06/25 12:29:37;;;;;;;1.60;0.75;;;32.10;82.30;;;;;;5053339;28;20021;-74
2023/06/25 12:32:03;;;;;;;0.30;0.30;;;32.00;81.10;;;;;;5052039;28;20036;-73
2023/06/25 12:34:29;;;;;;;2.17;1.75;;;32.00;81.60;;;;;;5053428;28;20095;-74
2023/06/25 12:36:55;;;;;;;0.60;0.60;;;32.10;81.30;;;;;;5052954;28;20090;-73
2023/06/25 12:39:21;;;;;;;2.70;1.30;;;32.20;81.80;;;;;;5053285;28;20029;-73
2023/06/25 12:41:46;;;;;;;0.20;0.20;;;31.90;81.20;;;;;;5051285;28;20443;-74
2023/06/25 12:44:12;;;;;;;0.80;0.25;;;32.10;82.00;;;;;;5053130;28;20116;-74